Pine Lake, Georgia
Current Conditions -  °F | °C
As of 6:53 PM on Sunday 23 Nov 2014 (Local Time) from KPDK Reporting Station
Broken Clouds Broken Clouds  
Wind Chill: 13°   Ceiling: 700
Heat Index: 13°   Visibility: 1.5mi
Dew Point: 12°   Wind: 6mph
Humidity: 93%   Direction: 150°SSE
Pressure: 29.7"   Gusts: NA
Location:  33.79°N, 84.21°W
Report Text: KPDK 232353Z 15005KT 1 1/2SM BKN007 BKN032 BKN110 13/12 A2970 RMK AO2 SFC VIS 10 RAE2257 SLP060 P0001 60085 T01330122 10133 20094 51006
Loading
Personal Weather Stations






























Interactive Weather Map New forecast layout! Learn more

10-Day Weather Forecast

Advertisements
Track Severe Weather on mobile